Crane, Texas
Current Conditions -  °F | °C
As of 8:53 PM on Wednesday 22 Oct 2014 (Local Time) from KODO Reporting Station
Few Clouds Few Clouds  
Wind Chill: 65°   Ceiling: Unl
Heat Index: 65°   Visibility: 10mi
Dew Point: 52°   Wind: 14mph
Humidity: 63%   Direction: 170°S
Pressure: 30.13"   Gusts: NA
Location:  31.4°N, 102.35°W
Report Text: KODO 230153Z AUTO 17012KT 10SM FEW070 18/11 A3013 RMK AO2 SLP169 T01830111
Loading
Personal Weather Stations






























Interactive Weather Map
Tropical Storm Tracking
New forecast layout! Learn more

10-Day Weather Forecast

Advertisements
Track Severe Weather on mobile